<?xml version="1.0" encoding="UTF-8" standalone="no" ?>
<gpx xmlns="http://www.topografix.com/GPX/1/1" xmlns:xsi="http://www.w3.org/2001/XMLSchema-instance" xsi:schemaLocation="http://www.topografix.com/GPX/1/1 http://www.topografix.com/GPX/1/1/gpx.xsd" version="1.1" creator="VisuGPX - https://www.visugpx.com">
  <metadata>
    <name>4FortsLesAuxons</name>
    <desc><![CDATA[Rando autour de Besançon qui donne un aspect de la situation privilégiée de la ville.]]></desc>
  </metadata>
  <trk>
    <name><![CDATA[4forts on GPSies.com]]></name>
    <trkseg>
      <trkpt lat="47.24371" lon="6.03441">
        <ele>253</ele>
        <time>2010-01-01T00:00:00Z</time>
      </trkpt>
      <trkpt lat="47.2421" lon="6.03341">
        <ele>252</ele>
        <time>2010-01-01T00:01:10Z</time>
      </trkpt>
      <trkpt lat="47.24176" lon="6.03408">
        <ele>254</ele>
        <time>2010-01-01T00:01:32Z</time>
      </trkpt>
      <trkpt lat="47.24189" lon="6.03422">
        <ele>256</ele>
        <time>2010-01-01T00:01:39Z</time>
      </trkpt>
      <trkpt lat="47.24188" lon="6.03468">
        <ele>260</ele>
        <time>2010-01-01T00:01:51Z</time>
      </trkpt>
      <trkpt lat="47.24224" lon="6.03527">
        <ele>267</ele>
        <time>2010-01-01T00:02:13Z</time>
      </trkpt>
      <trkpt lat="47.24315" lon="6.03586">
        <ele>274</ele>
        <time>2010-01-01T00:02:52Z</time>
      </trkpt>
      <trkpt lat="47.24353" lon="6.03668">
        <ele>282</ele>
        <time>2010-01-01T00:03:19Z</time>
      </trkpt>
      <trkpt lat="47.2447" lon="6.03792">
        <ele>287</ele>
        <time>2010-01-01T00:04:17Z</time>
      </trkpt>
      <trkpt lat="47.24541" lon="6.04117">
        <ele>319</ele>
        <time>2010-01-01T00:05:50Z</time>
      </trkpt>
      <trkpt lat="47.24491" lon="6.04041">
        <ele>314</ele>
        <time>2010-01-01T00:06:19Z</time>
      </trkpt>
      <trkpt lat="47.24442" lon="6.04107">
        <ele>326</ele>
        <time>2010-01-01T00:06:45Z</time>
      </trkpt>
      <trkpt lat="47.24302" lon="6.03899">
        <ele>324</ele>
        <time>2010-01-01T00:08:05Z</time>
      </trkpt>
      <trkpt lat="47.24265" lon="6.0387">
        <ele>323</ele>
        <time>2010-01-01T00:08:22Z</time>
      </trkpt>
      <trkpt lat="47.24213" lon="6.03893">
        <ele>325</ele>
        <time>2010-01-01T00:08:44Z</time>
      </trkpt>
      <trkpt lat="47.24181" lon="6.03904">
        <ele>325</ele>
        <time>2010-01-01T00:08:57Z</time>
      </trkpt>
      <trkpt lat="47.24154" lon="6.03962">
        <ele>328</ele>
        <time>2010-01-01T00:09:16Z</time>
      </trkpt>
      <trkpt lat="47.24212" lon="6.04121">
        <ele>336</ele>
        <time>2010-01-01T00:10:05Z</time>
      </trkpt>
      <trkpt lat="47.24219" lon="6.04244">
        <ele>344</ele>
        <time>2010-01-01T00:10:39Z</time>
      </trkpt>
      <trkpt lat="47.24215" lon="6.04386">
        <ele>350</ele>
        <time>2010-01-01T00:11:17Z</time>
      </trkpt>
      <trkpt lat="47.24253" lon="6.04471">
        <ele>352</ele>
        <time>2010-01-01T00:11:45Z</time>
      </trkpt>
      <trkpt lat="47.24249" lon="6.04586">
        <ele>358</ele>
        <time>2010-01-01T00:12:16Z</time>
      </trkpt>
      <trkpt lat="47.24263" lon="6.0465">
        <ele>361</ele>
        <time>2010-01-01T00:12:34Z</time>
      </trkpt>
      <trkpt lat="47.24194" lon="6.04755">
        <ele>370</ele>
        <time>2010-01-01T00:13:14Z</time>
      </trkpt>
      <trkpt lat="47.24129" lon="6.04796">
        <ele>377</ele>
        <time>2010-01-01T00:13:42Z</time>
      </trkpt>
      <trkpt lat="47.241" lon="6.04804">
        <ele>380</ele>
        <time>2010-01-01T00:13:54Z</time>
      </trkpt>
      <trkpt lat="47.24063" lon="6.04709">
        <ele>378</ele>
        <time>2010-01-01T00:14:24Z</time>
      </trkpt>
      <trkpt lat="47.24008" lon="6.04527">
        <ele>369</ele>
        <time>2010-01-01T00:15:18Z</time>
      </trkpt>
      <trkpt lat="47.23961" lon="6.0451">
        <ele>374</ele>
        <time>2010-01-01T00:15:37Z</time>
      </trkpt>
      <trkpt lat="47.23677" lon="6.04239">
        <ele>403</ele>
        <time>2010-01-01T00:17:53Z</time>
      </trkpt>
      <trkpt lat="47.23688" lon="6.04323">
        <ele>409</ele>
        <time>2010-01-01T00:18:16Z</time>
      </trkpt>
      <trkpt lat="47.23696" lon="6.04403">
        <ele>412</ele>
        <time>2010-01-01T00:18:38Z</time>
      </trkpt>
      <trkpt lat="47.23692" lon="6.04531">
        <ele>421</ele>
        <time>2010-01-01T00:19:13Z</time>
      </trkpt>
      <trkpt lat="47.23759" lon="6.04681">
        <ele>417</ele>
        <time>2010-01-01T00:20:02Z</time>
      </trkpt>
      <trkpt lat="47.23767" lon="6.04735">
        <ele>418</ele>
        <time>2010-01-01T00:20:17Z</time>
      </trkpt>
      <trkpt lat="47.23677" lon="6.04735">
        <ele>428</ele>
        <time>2010-01-01T00:20:53Z</time>
      </trkpt>
      <trkpt lat="47.23614" lon="6.04853">
        <ele>431</ele>
        <time>2010-01-01T00:21:33Z</time>
      </trkpt>
      <trkpt lat="47.23567" lon="6.0487">
        <ele>428</ele>
        <time>2010-01-01T00:21:53Z</time>
      </trkpt>
      <trkpt lat="47.23553" lon="6.04879">
        <ele>427</ele>
        <time>2010-01-01T00:21:59Z</time>
      </trkpt>
      <trkpt lat="47.23513" lon="6.04869">
        <ele>423</ele>
        <time>2010-01-01T00:22:15Z</time>
      </trkpt>
      <trkpt lat="47.23444" lon="6.04845">
        <ele>413</ele>
        <time>2010-01-01T00:22:44Z</time>
      </trkpt>
      <trkpt lat="47.23421" lon="6.0486">
        <ele>409</ele>
        <time>2010-01-01T00:22:54Z</time>
      </trkpt>
      <trkpt lat="47.23405" lon="6.04984">
        <ele>399</ele>
        <time>2010-01-01T00:23:28Z</time>
      </trkpt>
      <trkpt lat="47.23393" lon="6.05013">
        <ele>393</ele>
        <time>2010-01-01T00:23:37Z</time>
      </trkpt>
      <trkpt lat="47.23408" lon="6.051">
        <ele>390</ele>
        <time>2010-01-01T00:24:02Z</time>
      </trkpt>
      <trkpt lat="47.2345" lon="6.05199">
        <ele>389</ele>
        <time>2010-01-01T00:24:33Z</time>
      </trkpt>
      <trkpt lat="47.2365" lon="6.05421">
        <ele>414</ele>
        <time>2010-01-01T00:26:14Z</time>
      </trkpt>
      <trkpt lat="47.23759" lon="6.05528">
        <ele>414</ele>
        <time>2010-01-01T00:27:06Z</time>
      </trkpt>
      <trkpt lat="47.23923" lon="6.05608">
        <ele>404</ele>
        <time>2010-01-01T00:28:15Z</time>
      </trkpt>
      <trkpt lat="47.24017" lon="6.05618">
        <ele>406</ele>
        <time>2010-01-01T00:28:53Z</time>
      </trkpt>
      <trkpt lat="47.24162" lon="6.05688">
        <ele>402</ele>
        <time>2010-01-01T00:29:54Z</time>
      </trkpt>
      <trkpt lat="47.24167" lon="6.05715">
        <ele>395</ele>
        <time>2010-01-01T00:30:02Z</time>
      </trkpt>
      <trkpt lat="47.24241" lon="6.05753">
        <ele>398</ele>
        <time>2010-01-01T00:30:33Z</time>
      </trkpt>
      <trkpt lat="47.24347" lon="6.05813">
        <ele>396</ele>
        <time>2010-01-01T00:31:18Z</time>
      </trkpt>
      <trkpt lat="47.24419" lon="6.05888">
        <ele>388</ele>
        <time>2010-01-01T00:31:53Z</time>
      </trkpt>
      <trkpt lat="47.2451" lon="6.05993">
        <ele>375</ele>
        <time>2010-01-01T00:32:40Z</time>
      </trkpt>
      <trkpt lat="47.2457" lon="6.06083">
        <ele>367</ele>
        <time>2010-01-01T00:33:14Z</time>
      </trkpt>
      <trkpt lat="47.24601" lon="6.06148">
        <ele>356</ele>
        <time>2010-01-01T00:33:36Z</time>
      </trkpt>
      <trkpt lat="47.24808" lon="6.06245">
        <ele>357</ele>
        <time>2010-01-01T00:35:02Z</time>
      </trkpt>
      <trkpt lat="47.24908" lon="6.06193">
        <ele>353</ele>
        <time>2010-01-01T00:35:45Z</time>
      </trkpt>
      <trkpt lat="47.24992" lon="6.06271">
        <ele>355</ele>
        <time>2010-01-01T00:36:25Z</time>
      </trkpt>
      <trkpt lat="47.25031" lon="6.06314">
        <ele>356</ele>
        <time>2010-01-01T00:36:44Z</time>
      </trkpt>
      <trkpt lat="47.25073" lon="6.06393">
        <ele>352</ele>
        <time>2010-01-01T00:37:12Z</time>
      </trkpt>
      <trkpt lat="47.25157" lon="6.06445">
        <ele>352</ele>
        <time>2010-01-01T00:37:48Z</time>
      </trkpt>
      <trkpt lat="47.25266" lon="6.06499">
        <ele>347</ele>
        <time>2010-01-01T00:38:34Z</time>
      </trkpt>
      <trkpt lat="47.25327" lon="6.06414">
        <ele>347</ele>
        <time>2010-01-01T00:39:08Z</time>
      </trkpt>
      <trkpt lat="47.25356" lon="6.06485">
        <ele>345</ele>
        <time>2010-01-01T00:39:30Z</time>
      </trkpt>
      <trkpt lat="47.25367" lon="6.06486">
        <ele>344</ele>
        <time>2010-01-01T00:39:35Z</time>
      </trkpt>
      <trkpt lat="47.25639" lon="6.06032">
        <ele>331</ele>
        <time>2010-01-01T00:42:19Z</time>
      </trkpt>
      <trkpt lat="47.25652" lon="6.0604">
        <ele>327</ele>
        <time>2010-01-01T00:42:25Z</time>
      </trkpt>
      <trkpt lat="47.25885" lon="6.05652">
        <ele>344</ele>
        <time>2010-01-01T00:44:45Z</time>
      </trkpt>
      <trkpt lat="47.25962" lon="6.05486">
        <ele>349</ele>
        <time>2010-01-01T00:45:40Z</time>
      </trkpt>
      <trkpt lat="47.25935" lon="6.0549">
        <ele>355</ele>
        <time>2010-01-01T00:45:51Z</time>
      </trkpt>
      <trkpt lat="47.2587" lon="6.05417">
        <ele>358</ele>
        <time>2010-01-01T00:46:24Z</time>
      </trkpt>
      <trkpt lat="47.25927" lon="6.05321">
        <ele>359</ele>
        <time>2010-01-01T00:46:59Z</time>
      </trkpt>
      <trkpt lat="47.25893" lon="6.05256">
        <ele>350</ele>
        <time>2010-01-01T00:47:21Z</time>
      </trkpt>
      <trkpt lat="47.25978" lon="6.05209">
        <ele>346</ele>
        <time>2010-01-01T00:47:57Z</time>
      </trkpt>
      <trkpt lat="47.26005" lon="6.05198">
        <ele>344</ele>
        <time>2010-01-01T00:48:09Z</time>
      </trkpt>
      <trkpt lat="47.26075" lon="6.05216">
        <ele>341</ele>
        <time>2010-01-01T00:48:37Z</time>
      </trkpt>
      <trkpt lat="47.2608" lon="6.0518">
        <ele>334</ele>
        <time>2010-01-01T00:48:47Z</time>
      </trkpt>
      <trkpt lat="47.26029" lon="6.05166">
        <ele>337</ele>
        <time>2010-01-01T00:49:08Z</time>
      </trkpt>
      <trkpt lat="47.26035" lon="6.0512">
        <ele>330</ele>
        <time>2010-01-01T00:49:20Z</time>
      </trkpt>
      <trkpt lat="47.26096" lon="6.05125">
        <ele>328</ele>
        <time>2010-01-01T00:49:45Z</time>
      </trkpt>
      <trkpt lat="47.262" lon="6.04953">
        <ele>320</ele>
        <time>2010-01-01T00:50:47Z</time>
      </trkpt>
      <trkpt lat="47.26166" lon="6.04901">
        <ele>318</ele>
        <time>2010-01-01T00:51:07Z</time>
      </trkpt>
      <trkpt lat="47.26304" lon="6.04679">
        <ele>328</ele>
        <time>2010-01-01T00:52:29Z</time>
      </trkpt>
      <trkpt lat="47.26538" lon="6.04874">
        <ele>331</ele>
        <time>2010-01-01T00:54:17Z</time>
      </trkpt>
      <trkpt lat="47.26634" lon="6.04983">
        <ele>331</ele>
        <time>2010-01-01T00:55:05Z</time>
      </trkpt>
      <trkpt lat="47.26706" lon="6.04988">
        <ele>331</ele>
        <time>2010-01-01T00:55:34Z</time>
      </trkpt>
      <trkpt lat="47.26743" lon="6.04941">
        <ele>332</ele>
        <time>2010-01-01T00:55:53Z</time>
      </trkpt>
      <trkpt lat="47.26807" lon="6.04833">
        <ele>336</ele>
        <time>2010-01-01T00:56:32Z</time>
      </trkpt>
      <trkpt lat="47.26859" lon="6.04764">
        <ele>337</ele>
        <time>2010-01-01T00:57:00Z</time>
      </trkpt>
      <trkpt lat="47.26992" lon="6.04681">
        <ele>331</ele>
        <time>2010-01-01T00:57:58Z</time>
      </trkpt>
      <trkpt lat="47.27065" lon="6.04597">
        <ele>323</ele>
        <time>2010-01-01T00:58:35Z</time>
      </trkpt>
      <trkpt lat="47.27131" lon="6.04499">
        <ele>325</ele>
        <time>2010-01-01T00:59:13Z</time>
      </trkpt>
      <trkpt lat="47.27244" lon="6.04626">
        <ele>330</ele>
        <time>2010-01-01T01:00:10Z</time>
      </trkpt>
      <trkpt lat="47.27277" lon="6.04667">
        <ele>330</ele>
        <time>2010-01-01T01:00:27Z</time>
      </trkpt>
      <trkpt lat="47.27633" lon="6.03882">
        <ele>362</ele>
        <time>2010-01-01T01:04:44Z</time>
      </trkpt>
      <trkpt lat="47.28272" lon="6.02543">
        <ele>362</ele>
        <time>2010-01-01T01:12:08Z</time>
      </trkpt>
      <trkpt lat="47.28337" lon="6.02561">
        <ele>362</ele>
        <time>2010-01-01T01:12:35Z</time>
      </trkpt>
      <trkpt lat="47.28383" lon="6.02531">
        <ele>362</ele>
        <time>2010-01-01T01:12:55Z</time>
      </trkpt>
      <trkpt lat="47.28404" lon="6.02512">
        <ele>361</ele>
        <time>2010-01-01T01:13:04Z</time>
      </trkpt>
      <trkpt lat="47.28581" lon="6.02518">
        <ele>342</ele>
        <time>2010-01-01T01:14:16Z</time>
      </trkpt>
      <trkpt lat="47.28661" lon="6.025">
        <ele>336</ele>
        <time>2010-01-01T01:14:48Z</time>
      </trkpt>
      <trkpt lat="47.28789" lon="6.0245">
        <ele>331</ele>
        <time>2010-01-01T01:15:41Z</time>
      </trkpt>
      <trkpt lat="47.28823" lon="6.02492">
        <ele>332</ele>
        <time>2010-01-01T01:15:59Z</time>
      </trkpt>
      <trkpt lat="47.28875" lon="6.02505">
        <ele>333</ele>
        <time>2010-01-01T01:16:20Z</time>
      </trkpt>
      <trkpt lat="47.28952" lon="6.02484">
        <ele>335</ele>
        <time>2010-01-01T01:16:51Z</time>
      </trkpt>
      <trkpt lat="47.29015" lon="6.02419">
        <ele>334</ele>
        <time>2010-01-01T01:17:22Z</time>
      </trkpt>
      <trkpt lat="47.29074" lon="6.024">
        <ele>334</ele>
        <time>2010-01-01T01:17:46Z</time>
      </trkpt>
      <trkpt lat="47.29134" lon="6.02331">
        <ele>332</ele>
        <time>2010-01-01T01:18:17Z</time>
      </trkpt>
      <trkpt lat="47.29107" lon="6.02263">
        <ele>329</ele>
        <time>2010-01-01T01:18:38Z</time>
      </trkpt>
      <trkpt lat="47.29096" lon="6.0219">
        <ele>327</ele>
        <time>2010-01-01T01:18:59Z</time>
      </trkpt>
      <trkpt lat="47.29155" lon="6.02177">
        <ele>328</ele>
        <time>2010-01-01T01:19:22Z</time>
      </trkpt>
      <trkpt lat="47.29257" lon="6.02237">
        <ele>332</ele>
        <time>2010-01-01T01:20:06Z</time>
      </trkpt>
      <trkpt lat="47.29299" lon="6.02329">
        <ele>338</ele>
        <time>2010-01-01T01:20:36Z</time>
      </trkpt>
      <trkpt lat="47.29303" lon="6.02412">
        <ele>347</ele>
        <time>2010-01-01T01:20:59Z</time>
      </trkpt>
      <trkpt lat="47.29585" lon="6.03037">
        <ele>379</ele>
        <time>2010-01-01T01:24:23Z</time>
      </trkpt>
      <trkpt lat="47.29642" lon="6.03081">
        <ele>376</ele>
        <time>2010-01-01T01:24:48Z</time>
      </trkpt>
      <trkpt lat="47.29765" lon="6.03162">
        <ele>380</ele>
        <time>2010-01-01T01:25:43Z</time>
      </trkpt>
      <trkpt lat="47.29838" lon="6.03138">
        <ele>381</ele>
        <time>2010-01-01T01:26:13Z</time>
      </trkpt>
      <trkpt lat="47.29996" lon="6.03053">
        <ele>409</ele>
        <time>2010-01-01T01:27:20Z</time>
      </trkpt>
      <trkpt lat="47.30061" lon="6.03146">
        <ele>403</ele>
        <time>2010-01-01T01:27:56Z</time>
      </trkpt>
      <trkpt lat="47.30196" lon="6.03146">
        <ele>413</ele>
        <time>2010-01-01T01:28:50Z</time>
      </trkpt>
      <trkpt lat="47.30291" lon="6.03212">
        <ele>426</ele>
        <time>2010-01-01T01:29:32Z</time>
      </trkpt>
      <trkpt lat="47.30412" lon="6.03363">
        <ele>440</ele>
        <time>2010-01-01T01:30:36Z</time>
      </trkpt>
      <trkpt lat="47.30426" lon="6.03423">
        <ele>438</ele>
        <time>2010-01-01T01:30:53Z</time>
      </trkpt>
      <trkpt lat="47.30451" lon="6.03418">
        <ele>445</ele>
        <time>2010-01-01T01:31:03Z</time>
      </trkpt>
      <trkpt lat="47.30369" lon="6.03092">
        <ele>455</ele>
        <time>2010-01-01T01:32:38Z</time>
      </trkpt>
      <trkpt lat="47.30392" lon="6.0308">
        <ele>462</ele>
        <time>2010-01-01T01:32:47Z</time>
      </trkpt>
      <trkpt lat="47.30451" lon="6.03259">
        <ele>458</ele>
        <time>2010-01-01T01:33:42Z</time>
      </trkpt>
      <trkpt lat="47.30467" lon="6.03244">
        <ele>463</ele>
        <time>2010-01-01T01:33:49Z</time>
      </trkpt>
      <trkpt lat="47.30423" lon="6.03069">
        <ele>468</ele>
        <time>2010-01-01T01:34:40Z</time>
      </trkpt>
      <trkpt lat="47.30394" lon="6.03001">
        <ele>469</ele>
        <time>2010-01-01T01:35:02Z</time>
      </trkpt>
      <trkpt lat="47.30426" lon="6.03003">
        <ele>469</ele>
        <time>2010-01-01T01:35:14Z</time>
      </trkpt>
      <trkpt lat="47.30574" lon="6.03228">
        <ele>483</ele>
        <time>2010-01-01T01:36:40Z</time>
      </trkpt>
      <trkpt lat="47.30674" lon="6.0346">
        <ele>498</ele>
        <time>2010-01-01T01:37:54Z</time>
      </trkpt>
      <trkpt lat="47.30777" lon="6.03706">
        <ele>511</ele>
        <time>2010-01-01T01:39:13Z</time>
      </trkpt>
      <trkpt lat="47.30815" lon="6.03927">
        <ele>523</ele>
        <time>2010-01-01T01:40:15Z</time>
      </trkpt>
      <trkpt lat="47.30812" lon="6.04085">
        <ele>524</ele>
        <time>2010-01-01T01:40:58Z</time>
      </trkpt>
      <trkpt lat="47.30846" lon="6.04088">
        <ele>534</ele>
        <time>2010-01-01T01:41:11Z</time>
      </trkpt>
      <trkpt lat="47.30848" lon="6.03946">
        <ele>532</ele>
        <time>2010-01-01T01:41:50Z</time>
      </trkpt>
      <trkpt lat="47.30898" lon="6.03704">
        <ele>538</ele>
        <time>2010-01-01T01:42:58Z</time>
      </trkpt>
      <trkpt lat="47.30933" lon="6.03604">
        <ele>540</ele>
        <time>2010-01-01T01:43:29Z</time>
      </trkpt>
      <trkpt lat="47.30964" lon="6.03619">
        <ele>539</ele>
        <time>2010-01-01T01:43:42Z</time>
      </trkpt>
      <trkpt lat="47.30981" lon="6.03525">
        <ele>538</ele>
        <time>2010-01-01T01:44:09Z</time>
      </trkpt>
      <trkpt lat="47.31018" lon="6.03471">
        <ele>539</ele>
        <time>2010-01-01T01:44:30Z</time>
      </trkpt>
      <trkpt lat="47.31133" lon="6.0328">
        <ele>513</ele>
        <time>2010-01-01T01:45:39Z</time>
      </trkpt>
      <trkpt lat="47.31222" lon="6.03167">
        <ele>490</ele>
        <time>2010-01-01T01:46:26Z</time>
      </trkpt>
      <trkpt lat="47.3124" lon="6.03089">
        <ele>478</ele>
        <time>2010-01-01T01:46:48Z</time>
      </trkpt>
      <trkpt lat="47.31264" lon="6.02971">
        <ele>463</ele>
        <time>2010-01-01T01:47:21Z</time>
      </trkpt>
      <trkpt lat="47.3123" lon="6.0285">
        <ele>457</ele>
        <time>2010-01-01T01:47:57Z</time>
      </trkpt>
      <trkpt lat="47.3123" lon="6.02764">
        <ele>455</ele>
        <time>2010-01-01T01:48:21Z</time>
      </trkpt>
      <trkpt lat="47.31189" lon="6.02705">
        <ele>455</ele>
        <time>2010-01-01T01:48:43Z</time>
      </trkpt>
      <trkpt lat="47.31229" lon="6.02602">
        <ele>457</ele>
        <time>2010-01-01T01:49:16Z</time>
      </trkpt>
      <trkpt lat="47.31258" lon="6.02309">
        <ele>469</ele>
        <time>2010-01-01T01:50:36Z</time>
      </trkpt>
      <trkpt lat="47.31279" lon="6.02211">
        <ele>473</ele>
        <time>2010-01-01T01:51:04Z</time>
      </trkpt>
      <trkpt lat="47.31264" lon="6.02064">
        <ele>470</ele>
        <time>2010-01-01T01:51:44Z</time>
      </trkpt>
      <trkpt lat="47.31111" lon="6.01779">
        <ele>451</ele>
        <time>2010-01-01T01:53:23Z</time>
      </trkpt>
      <trkpt lat="47.30969" lon="6.01766">
        <ele>440</ele>
        <time>2010-01-01T01:54:19Z</time>
      </trkpt>
      <trkpt lat="47.30937" lon="6.01787">
        <ele>440</ele>
        <time>2010-01-01T01:54:34Z</time>
      </trkpt>
      <trkpt lat="47.30704" lon="6.01602">
        <ele>440</ele>
        <time>2010-01-01T01:56:19Z</time>
      </trkpt>
      <trkpt lat="47.30703" lon="6.01443">
        <ele>445</ele>
        <time>2010-01-01T01:57:03Z</time>
      </trkpt>
      <trkpt lat="47.30681" lon="6.01203">
        <ele>439</ele>
        <time>2010-01-01T01:58:08Z</time>
      </trkpt>
      <trkpt lat="47.30717" lon="6.01203">
        <ele>437</ele>
        <time>2010-01-01T01:58:23Z</time>
      </trkpt>
      <trkpt lat="47.30805" lon="6.0107">
        <ele>427</ele>
        <time>2010-01-01T01:59:13Z</time>
      </trkpt>
      <trkpt lat="47.30863" lon="6.01014">
        <ele>419</ele>
        <time>2010-01-01T01:59:41Z</time>
      </trkpt>
      <trkpt lat="47.30887" lon="6.00963">
        <ele>412</ele>
        <time>2010-01-01T01:59:58Z</time>
      </trkpt>
      <trkpt lat="47.30888" lon="6.00916">
        <ele>406</ele>
        <time>2010-01-01T02:00:10Z</time>
      </trkpt>
      <trkpt lat="47.30845" lon="6.00728">
        <ele>408</ele>
        <time>2010-01-01T02:01:04Z</time>
      </trkpt>
      <trkpt lat="47.3083" lon="6.00634">
        <ele>414</ele>
        <time>2010-01-01T02:01:30Z</time>
      </trkpt>
      <trkpt lat="47.30785" lon="6.00568">
        <ele>422</ele>
        <time>2010-01-01T02:01:56Z</time>
      </trkpt>
      <trkpt lat="47.30653" lon="6.00516">
        <ele>408</ele>
        <time>2010-01-01T02:02:50Z</time>
      </trkpt>
      <trkpt lat="47.30542" lon="6.00409">
        <ele>384</ele>
        <time>2010-01-01T02:03:43Z</time>
      </trkpt>
      <trkpt lat="47.30689" lon="6.00323">
        <ele>369</ele>
        <time>2010-01-01T02:04:47Z</time>
      </trkpt>
      <trkpt lat="47.30855" lon="6.00057">
        <ele>333</ele>
        <time>2010-01-01T02:06:25Z</time>
      </trkpt>
      <trkpt lat="47.30863" lon="6.00004">
        <ele>327</ele>
        <time>2010-01-01T02:06:39Z</time>
      </trkpt>
      <trkpt lat="47.30959" lon="5.99968">
        <ele>320</ele>
        <time>2010-01-01T02:07:19Z</time>
      </trkpt>
      <trkpt lat="47.31069" lon="5.99976">
        <ele>316</ele>
        <time>2010-01-01T02:08:03Z</time>
      </trkpt>
      <trkpt lat="47.31169" lon="5.99956">
        <ele>306</ele>
        <time>2010-01-01T02:08:43Z</time>
      </trkpt>
      <trkpt lat="47.31308" lon="5.99979">
        <ele>293</ele>
        <time>2010-01-01T02:09:39Z</time>
      </trkpt>
      <trkpt lat="47.31337" lon="5.99838">
        <ele>282</ele>
        <time>2010-01-01T02:10:19Z</time>
      </trkpt>
      <trkpt lat="47.31427" lon="5.99679">
        <ele>272</ele>
        <time>2010-01-01T02:11:16Z</time>
      </trkpt>
      <trkpt lat="47.31507" lon="5.99572">
        <ele>265</ele>
        <time>2010-01-01T02:11:59Z</time>
      </trkpt>
      <trkpt lat="47.31295" lon="5.99458">
        <ele>266</ele>
        <time>2010-01-01T02:13:29Z</time>
      </trkpt>
      <trkpt lat="47.31179" lon="5.99288">
        <ele>272</ele>
        <time>2010-01-01T02:14:35Z</time>
      </trkpt>
      <trkpt lat="47.31084" lon="5.99086">
        <ele>277</ele>
        <time>2010-01-01T02:15:42Z</time>
      </trkpt>
      <trkpt lat="47.31019" lon="5.98933">
        <ele>273</ele>
        <time>2010-01-01T02:16:31Z</time>
      </trkpt>
      <trkpt lat="47.31056" lon="5.9881">
        <ele>266</ele>
        <time>2010-01-01T02:17:07Z</time>
      </trkpt>
      <trkpt lat="47.30979" lon="5.98774">
        <ele>264</ele>
        <time>2010-01-01T02:17:40Z</time>
      </trkpt>
      <trkpt lat="47.30946" lon="5.98742">
        <ele>263</ele>
        <time>2010-01-01T02:17:56Z</time>
      </trkpt>
      <trkpt lat="47.30912" lon="5.98677">
        <ele>258</ele>
        <time>2010-01-01T02:18:18Z</time>
      </trkpt>
      <trkpt lat="47.30811" lon="5.98541">
        <ele>256</ele>
        <time>2010-01-01T02:19:13Z</time>
      </trkpt>
      <trkpt lat="47.30737" lon="5.98457">
        <ele>256</ele>
        <time>2010-01-01T02:19:50Z</time>
      </trkpt>
      <trkpt lat="47.3073" lon="5.98301">
        <ele>250</ele>
        <time>2010-01-01T02:20:33Z</time>
      </trkpt>
      <trkpt lat="47.30667" lon="5.98224">
        <ele>251</ele>
        <time>2010-01-01T02:21:05Z</time>
      </trkpt>
      <trkpt lat="47.30569" lon="5.98068">
        <ele>261</ele>
        <time>2010-01-01T02:22:03Z</time>
      </trkpt>
      <trkpt lat="47.30514" lon="5.98034">
        <ele>266</ele>
        <time>2010-01-01T02:22:27Z</time>
      </trkpt>
      <trkpt lat="47.30479" lon="5.97999">
        <ele>268</ele>
        <time>2010-01-01T02:22:44Z</time>
      </trkpt>
      <trkpt lat="47.30443" lon="5.97904">
        <ele>267</ele>
        <time>2010-01-01T02:23:13Z</time>
      </trkpt>
      <trkpt lat="47.30481" lon="5.97781">
        <ele>267</ele>
        <time>2010-01-01T02:23:50Z</time>
      </trkpt>
      <trkpt lat="47.30425" lon="5.97846">
        <ele>266</ele>
        <time>2010-01-01T02:24:19Z</time>
      </trkpt>
      <trkpt lat="47.30411" lon="5.97802">
        <ele>264</ele>
        <time>2010-01-01T02:24:32Z</time>
      </trkpt>
      <trkpt lat="47.3038" lon="5.97496">
        <ele>246</ele>
        <time>2010-01-01T02:25:56Z</time>
      </trkpt>
      <trkpt lat="47.30409" lon="5.97412">
        <ele>248</ele>
        <time>2010-01-01T02:26:22Z</time>
      </trkpt>
      <trkpt lat="47.30356" lon="5.97243">
        <ele>250</ele>
        <time>2010-01-01T02:27:13Z</time>
      </trkpt>
      <trkpt lat="47.30208" lon="5.97378">
        <ele>267</ele>
        <time>2010-01-01T02:28:22Z</time>
      </trkpt>
      <trkpt lat="47.30129" lon="5.97171">
        <ele>257</ele>
        <time>2010-01-01T02:29:27Z</time>
      </trkpt>
      <trkpt lat="47.30102" lon="5.97162">
        <ele>256</ele>
        <time>2010-01-01T02:29:38Z</time>
      </trkpt>
      <trkpt lat="47.30015" lon="5.97295">
        <ele>261</ele>
        <time>2010-01-01T02:30:28Z</time>
      </trkpt>
      <trkpt lat="47.29948" lon="5.97423">
        <ele>269</ele>
        <time>2010-01-01T02:31:12Z</time>
      </trkpt>
      <trkpt lat="47.29839" lon="5.97432">
        <ele>268</ele>
        <time>2010-01-01T02:31:56Z</time>
      </trkpt>
      <trkpt lat="47.29557" lon="5.97158">
        <ele>276</ele>
        <time>2010-01-01T02:34:11Z</time>
      </trkpt>
      <trkpt lat="47.29435" lon="5.97057">
        <ele>273</ele>
        <time>2010-01-01T02:35:07Z</time>
      </trkpt>
      <trkpt lat="47.29368" lon="5.9694">
        <ele>274</ele>
        <time>2010-01-01T02:35:48Z</time>
      </trkpt>
      <trkpt lat="47.29257" lon="5.96767">
        <ele>279</ele>
        <time>2010-01-01T02:36:53Z</time>
      </trkpt>
      <trkpt lat="47.29168" lon="5.96725">
        <ele>275</ele>
        <time>2010-01-01T02:37:30Z</time>
      </trkpt>
      <trkpt lat="47.29109" lon="5.96751">
        <ele>277</ele>
        <time>2010-01-01T02:37:55Z</time>
      </trkpt>
      <trkpt lat="47.29008" lon="5.96648">
        <ele>280</ele>
        <time>2010-01-01T02:38:44Z</time>
      </trkpt>
      <trkpt lat="47.28931" lon="5.9654">
        <ele>274</ele>
        <time>2010-01-01T02:39:27Z</time>
      </trkpt>
      <trkpt lat="47.28926" lon="5.96467">
        <ele>273</ele>
        <time>2010-01-01T02:39:47Z</time>
      </trkpt>
      <trkpt lat="47.28914" lon="5.96433">
        <ele>276</ele>
        <time>2010-01-01T02:39:57Z</time>
      </trkpt>
      <trkpt lat="47.28853" lon="5.96442">
        <ele>281</ele>
        <time>2010-01-01T02:40:22Z</time>
      </trkpt>
      <trkpt lat="47.28775" lon="5.96407">
        <ele>286</ele>
        <time>2010-01-01T02:40:54Z</time>
      </trkpt>
      <trkpt lat="47.28672" lon="5.96314">
        <ele>287</ele>
        <time>2010-01-01T02:41:43Z</time>
      </trkpt>
      <trkpt lat="47.2855" lon="5.96332">
        <ele>288</ele>
        <time>2010-01-01T02:42:32Z</time>
      </trkpt>
      <trkpt lat="47.28472" lon="5.9631">
        <ele>284</ele>
        <time>2010-01-01T02:43:04Z</time>
      </trkpt>
      <trkpt lat="47.28393" lon="5.96401">
        <ele>285</ele>
        <time>2010-01-01T02:43:44Z</time>
      </trkpt>
      <trkpt lat="47.28393" lon="5.9647">
        <ele>287</ele>
        <time>2010-01-01T02:44:03Z</time>
      </trkpt>
      <trkpt lat="47.28454" lon="5.96673">
        <ele>289</ele>
        <time>2010-01-01T02:45:03Z</time>
      </trkpt>
      <trkpt lat="47.28462" lon="5.96833">
        <ele>292</ele>
        <time>2010-01-01T02:45:46Z</time>
      </trkpt>
      <trkpt lat="47.28482" lon="5.96907">
        <ele>294</ele>
        <time>2010-01-01T02:46:08Z</time>
      </trkpt>
      <trkpt lat="47.28436" lon="5.96947">
        <ele>290</ele>
        <time>2010-01-01T02:46:29Z</time>
      </trkpt>
      <trkpt lat="47.28309" lon="5.96994">
        <ele>282</ele>
        <time>2010-01-01T02:47:22Z</time>
      </trkpt>
      <trkpt lat="47.2825" lon="5.97079">
        <ele>294</ele>
        <time>2010-01-01T02:47:55Z</time>
      </trkpt>
      <trkpt lat="47.28228" lon="5.9719">
        <ele>293</ele>
        <time>2010-01-01T02:48:27Z</time>
      </trkpt>
      <trkpt lat="47.28295" lon="5.97628">
        <ele>294</ele>
        <time>2010-01-01T02:50:29Z</time>
      </trkpt>
      <trkpt lat="47.28282" lon="5.9769">
        <ele>290</ele>
        <time>2010-01-01T02:50:46Z</time>
      </trkpt>
      <trkpt lat="47.28208" lon="5.97685">
        <ele>286</ele>
        <time>2010-01-01T02:51:16Z</time>
      </trkpt>
      <trkpt lat="47.27845" lon="5.98001">
        <ele>297</ele>
        <time>2010-01-01T02:54:05Z</time>
      </trkpt>
      <trkpt lat="47.27774" lon="5.98026">
        <ele>301</ele>
        <time>2010-01-01T02:54:34Z</time>
      </trkpt>
      <trkpt lat="47.27657" lon="5.98022">
        <ele>311</ele>
        <time>2010-01-01T02:55:21Z</time>
      </trkpt>
      <trkpt lat="47.27537" lon="5.98109">
        <ele>319</ele>
        <time>2010-01-01T02:56:14Z</time>
      </trkpt>
      <trkpt lat="47.27403" lon="5.98163">
        <ele>323</ele>
        <time>2010-01-01T02:57:10Z</time>
      </trkpt>
      <trkpt lat="47.27345" lon="5.98133">
        <ele>322</ele>
        <time>2010-01-01T02:57:34Z</time>
      </trkpt>
      <trkpt lat="47.27291" lon="5.98136">
        <ele>319</ele>
        <time>2010-01-01T02:57:56Z</time>
      </trkpt>
      <trkpt lat="47.27162" lon="5.98226">
        <ele>314</ele>
        <time>2010-01-01T02:58:53Z</time>
      </trkpt>
      <trkpt lat="47.27137" lon="5.98241">
        <ele>315</ele>
        <time>2010-01-01T02:59:04Z</time>
      </trkpt>
      <trkpt lat="47.271" lon="5.98341">
        <ele>320</ele>
        <time>2010-01-01T02:59:35Z</time>
      </trkpt>
      <trkpt lat="47.27054" lon="5.98368">
        <ele>319</ele>
        <time>2010-01-01T02:59:55Z</time>
      </trkpt>
      <trkpt lat="47.26985" lon="5.98353">
        <ele>313</ele>
        <time>2010-01-01T03:00:23Z</time>
      </trkpt>
      <trkpt lat="47.26888" lon="5.98485">
        <ele>306</ele>
        <time>2010-01-01T03:01:16Z</time>
      </trkpt>
      <trkpt lat="47.26818" lon="5.98504">
        <ele>304</ele>
        <time>2010-01-01T03:01:44Z</time>
      </trkpt>
      <trkpt lat="47.26655" lon="5.98608">
        <ele>300</ele>
        <time>2010-01-01T03:02:55Z</time>
      </trkpt>
      <trkpt lat="47.26575" lon="5.98583">
        <ele>309</ele>
        <time>2010-01-01T03:03:28Z</time>
      </trkpt>
      <trkpt lat="47.26354" lon="5.98565">
        <ele>323</ele>
        <time>2010-01-01T03:04:57Z</time>
      </trkpt>
      <trkpt lat="47.26263" lon="5.98608">
        <ele>334</ele>
        <time>2010-01-01T03:05:35Z</time>
      </trkpt>
      <trkpt lat="47.26204" lon="5.98567">
        <ele>335</ele>
        <time>2010-01-01T03:06:01Z</time>
      </trkpt>
      <trkpt lat="47.26206" lon="5.98647">
        <ele>340</ele>
        <time>2010-01-01T03:06:23Z</time>
      </trkpt>
      <trkpt lat="47.26166" lon="5.9876">
        <ele>343</ele>
        <time>2010-01-01T03:06:57Z</time>
      </trkpt>
      <trkpt lat="47.25981" lon="5.98969">
        <ele>318</ele>
        <time>2010-01-01T03:08:31Z</time>
      </trkpt>
      <trkpt lat="47.25819" lon="5.99041">
        <ele>293</ele>
        <time>2010-01-01T03:09:38Z</time>
      </trkpt>
      <trkpt lat="47.25618" lon="5.99364">
        <ele>280</ele>
        <time>2010-01-01T03:11:38Z</time>
      </trkpt>
      <trkpt lat="47.25566" lon="5.99496">
        <ele>286</ele>
        <time>2010-01-01T03:12:19Z</time>
      </trkpt>
      <trkpt lat="47.2542" lon="5.99575">
        <ele>290</ele>
        <time>2010-01-01T03:13:21Z</time>
      </trkpt>
      <trkpt lat="47.25304" lon="5.99753">
        <ele>295</ele>
        <time>2010-01-01T03:14:28Z</time>
      </trkpt>
      <trkpt lat="47.25169" lon="5.99942">
        <ele>291</ele>
        <time>2010-01-01T03:15:43Z</time>
      </trkpt>
      <trkpt lat="47.25039" lon="6.00095">
        <ele>310</ele>
        <time>2010-01-01T03:16:50Z</time>
      </trkpt>
      <trkpt lat="47.2491" lon="6.00308">
        <ele>310</ele>
        <time>2010-01-01T03:18:07Z</time>
      </trkpt>
      <trkpt lat="47.24657" lon="6.00829">
        <ele>293</ele>
        <time>2010-01-01T03:21:01Z</time>
      </trkpt>
      <trkpt lat="47.24416" lon="6.01193">
        <ele>286</ele>
        <time>2010-01-01T03:23:19Z</time>
      </trkpt>
      <trkpt lat="47.24382" lon="6.01329">
        <ele>289</ele>
        <time>2010-01-01T03:23:59Z</time>
      </trkpt>
      <trkpt lat="47.24453" lon="6.01599">
        <ele>285</ele>
        <time>2010-01-01T03:25:17Z</time>
      </trkpt>
      <trkpt lat="47.24593" lon="6.01853">
        <ele>284</ele>
        <time>2010-01-01T03:26:46Z</time>
      </trkpt>
      <trkpt lat="47.24712" lon="6.02017">
        <ele>287</ele>
        <time>2010-01-01T03:27:51Z</time>
      </trkpt>
      <trkpt lat="47.24785" lon="6.01982">
        <ele>290</ele>
        <time>2010-01-01T03:28:22Z</time>
      </trkpt>
      <trkpt lat="47.24888" lon="6.02207">
        <ele>291</ele>
        <time>2010-01-01T03:29:36Z</time>
      </trkpt>
      <trkpt lat="47.24937" lon="6.02283">
        <ele>289</ele>
        <time>2010-01-01T03:30:05Z</time>
      </trkpt>
      <trkpt lat="47.24961" lon="6.02464">
        <ele>279</ele>
        <time>2010-01-01T03:30:54Z</time>
      </trkpt>
      <trkpt lat="47.25018" lon="6.02563">
        <ele>279</ele>
        <time>2010-01-01T03:31:30Z</time>
      </trkpt>
      <trkpt lat="47.25" lon="6.02632">
        <ele>281</ele>
        <time>2010-01-01T03:31:50Z</time>
      </trkpt>
      <trkpt lat="47.24958" lon="6.02688">
        <ele>280</ele>
        <time>2010-01-01T03:32:13Z</time>
      </trkpt>
      <trkpt lat="47.24709" lon="6.0273">
        <ele>265</ele>
        <time>2010-01-01T03:33:53Z</time>
      </trkpt>
      <trkpt lat="47.24639" lon="6.02805">
        <ele>260</ele>
        <time>2010-01-01T03:34:28Z</time>
      </trkpt>
      <trkpt lat="47.24546" lon="6.02832">
        <ele>255</ele>
        <time>2010-01-01T03:35:06Z</time>
      </trkpt>
      <trkpt lat="47.24383" lon="6.03072">
        <ele>246</ele>
        <time>2010-01-01T03:36:38Z</time>
      </trkpt>
      <trkpt lat="47.2426" lon="6.03255">
        <ele>247</ele>
        <time>2010-01-01T03:37:48Z</time>
      </trkpt>
      <trkpt lat="47.24394" lon="6.03429">
        <ele>251</ele>
        <time>2010-01-01T03:39:00Z</time>
      </trkpt>
      <trkpt lat="47.24371" lon="6.03441">
        <ele>253</ele>
        <time>2010-01-01T03:39:09Z</time>
      </trkpt>
    </trkseg>
  </trk>
</gpx>